Terminal Aerodrome Forecast
Issued by NWS

Home | Current Version | Previous Version | Text Only | Print | Product List | Glossary On
Versions: 1 2 3 4 5 6 7 8 9 10 11 12 13 14 15 16 17 18 19 20 21 22 23 24 25 26 27 28 29 30 31 32 33 34 35 36 37
000
FTAK31 PAFA 270529
TAFAOT
TAF
PAOT 270529Z 2706/2806 10024KT 4SM -SN BR OVC030
     FM271200 11025G33KT 6SM BR SCT015 BKN050
     FM271800 12017KT P6SM BKN100=

USA.gov is the U.S. government's official web portal to all federal, state and local government web resources and services.